ETEB/QOB METAR and TAF weather

Enter ICAO airport designator
Station Type Date Time Source
ETEB METAR 2022/01/23 11:56 UTC NOAA

ETEB 231156Z AUTO 34003KT 9999 OVC029 03/03 A3052 RMK AO2 SLPNO 70002 T00310030 10033 20013 58003 FZRANO $


Station Type Date Time Source
ETEB Decoded METAR 2022/01/23 11:56 UTC NOAA

Ansbach / Katterbach, Germany (ETEB) 49-19N 010-38E 476M
Jan 23, 2022 - 06:56 AM EST / 2022.01.23 1156 UTC
Wind: from the NNW (340 degrees) at 3 MPH (3 KT):0
Visibility: greater than 7 mile(s):0
Sky conditions: overcast
Temperature: 37.6 F (3.1 C)
Dew Point: 37.4 F (3.0 C)
Relative Humidity: 99%
Pressure (altimeter): 30.52 in. Hg (1033 hPa)
Pressure tendency: 0.01 inches (0.3 hPa) lower than three hours ago
ob: ETEB 231156Z AUTO 34003KT 9999 OVC029 03/03 A3052 RMK AO2 SLPNO 70002 T00310030 10033 20013 58003 FZRANO
cycle: 12

Station Type Date Time Source
ETEB TAF 2022/01/21 20:57 UTC NOAA

TAF
AMD ETEB 202030Z 2020/2121 30012G18KT 9999 FEW015 BKN025 QNH3021INS
BECMG 2100/2101 30009KT 9999 FEW013 QNH3035INS
BECMG 2104/2105 28009KT 9999 BKN006 OVC010 QNH3040INS
BECMG 2111/2112 30012G18KT 5000 -SHSN BR BKN020 OVC050 610206 QNH3041INS
BECMG 2117/2118 28010G15KT 9999 NSW SCT008 BKN020 OVC045 620206 QNH3040INS
BECMG 2120/2121 28012KT 4000 -SN FEW005 BKN008 OVC020 650089 QNH3039INS TX01/2115Z TNM04/2104Z LAST NO
AMDS AFT 2022 NEXT 2107

Example: see airport list